Time;durP1;ratioP1;P1;durP2;ratioP2;P2;SDS_P1;SDS_P2;PMS_P1;PMS_P2;Temp;Humidity;BMP_temperature;BMP_pressure;BME280_temperature;BME280_humidity;BME280_pressure;Samples;Min_cycle;Max_cycle;Signal;HPM_P1;HPM_P2
2022/05/04 00:00:01;;;;;;;324.60;112.67;;;;;;;9.50;89.58;99739.16;338265;29;1972;-71
2022/05/04 00:00:11;;;;;;;325.53;113.53;;;;;;;9.51;89.75;99743.47;337685;29;1998;-71
2022/05/04 00:00:22;;;;;;;325.17;113.53;;;;;;;9.51;89.81;99746.09;336904;29;1589;-71
2022/05/04 00:00:33;;;;;;;324.70;114.55;;;;;;;9.52;89.46;99750.41;338404;29;872;-71
2022/05/04 00:00:43;;;;;;;323.23;114.17;;;;;;;9.52;90.06;99742.56;339603;29;1098;-72
2022/05/04 00:00:54;;;;;;;323.35;113.80;;;;;;;9.52;90.12;99739.94;338398;29;735;-72
2022/05/04 00:01:04;;;;;;;323.90;113.20;;;;;;;9.53;89.97;99738.19;339621;29;1092;-72
2022/05/04 00:01:14;;;;;;;326.17;113.82;;;;;;;9.54;90.01;99745.94;339160;29;1067;-72
2022/05/04 00:01:25;;;;;;;326.27;114.57;;;;;;;9.55;89.94;99747.66;336918;29;1190;-72
2022/05/04 00:01:35;;;;;;;324.55;112.70;;;;;;;9.55;89.87;99741.56;336982;29;874;-72
2022/05/04 00:01:46;;;;;;;325.83;113.83;;;;;;;9.54;90.01;99740.72;338430;29;953;-72
2022/05/04 00:01:56;;;;;;;328.27;114.93;;;;;;;9.53;89.97;99749.47;336927;29;1118;-72
2022/05/04 00:02:06;;;;;;;330.17;116.43;;;;;;;9.52;89.86;99744.31;341008;29;843;-72
2022/05/04 00:02:17;;;;;;;329.53;115.27;;;;;;;9.53;90.00;99749.47;339443;29;1387;-72
2022/05/04 00:02:27;;;;;;;329.50;114.90;;;;;;;9.51;89.86;99738.25;339535;29;1246;-72
2022/05/04 00:02:38;;;;;;;330.47;115.07;;;;;;;9.53;90.28;99749.47;339673;29;818;-72
2022/05/04 00:02:48;;;;;;;330.67;115.05;;;;;;;9.52;90.48;99746.94;337039;29;877;-72
2022/05/04 00:02:59;;;;;;;328.77;114.70;;;;;;;9.53;90.66;99751.25;339615;29;1194;-72
2022/05/04 00:03:09;;;;;;;325.98;113.30;;;;;;;9.52;90.52;99742.56;338358;29;1583;-72
2022/05/04 00:03:20;;;;;;;323.05;113.00;;;;;;;9.52;90.22;99741.72;337895;29;1917;-72
2022/05/04 00:03:30;;;;;;;323.37;113.43;;;;;;;9.54;90.69;99745.09;336865;29;890;-72
2022/05/04 00:03:40;;;;;;;325.60;114.77;;;;;;;9.52;90.52;99742.56;337474;29;923;-72
2022/05/04 00:03:51;;;;;;;325.20;113.47;;;;;;;9.53;90.01;99746.03;338284;29;863;-71
2022/05/04 00:04:01;;;;;;;325.00;112.45;;;;;;;9.52;90.52;99747.78;339484;29;1370;-71
2022/05/04 00:04:12;;;;;;;323.37;111.10;;;;;;;9.52;90.55;99750.41;336951;29;1316;-71
2022/05/04 00:04:22;;;;;;;323.73;112.20;;;;;;;9.53;90.55;99751.25;334374;29;1328;-71
2022/05/04 00:04:33;;;;;;;323.27;111.90;;;;;;;9.53;90.40;99748.66;337010;29;1017;-71
2022/05/04 00:04:43;;;;;;;324.93;112.23;;;;;;;9.51;90.54;99746.09;335748;29;846;-71
2022/05/04 00:04:53;;;;;;;326.92;112.90;;;;;;;9.53;90.24;99749.47;336878;29;1752;-71
2022/05/04 00:05:04;;;;;;;326.97;114.40;;;;;;;9.54;90.45;99750.31;336693;29;3227;-71
2022/05/04 00:05:15;;;;;;;326.15;114.43;;;;;;;9.53;90.43;99749.47;335556;29;1408;-71
2022/05/04 00:05:26;;;;;;;325.53;114.67;;;;;;;9.53;90.41;99744.25;337073;29;1268;-71
2022/05/04 00:05:36;;;;;;;326.38;115.50;;;;;;;9.53;90.06;99754.69;336689;29;935;-71
2022/05/04 00:05:48;;;;;;;326.30;115.47;;;;;;;9.55;90.43;99752.88;338380;29;954;-71
2022/05/04 00:05:59;;;;;;;325.83;115.28;;;;;;;9.56;89.86;99751.97;337081;29;1243;-71
2022/05/04 00:06:09;;;;;;;326.92;115.20;;;;;;;9.54;90.36;99751.16;337030;29;1129;-71
2022/05/04 00:06:20;;;;;;;328.47;115.67;;;;;;;9.54;90.20;99756.41;337056;29;890;-71
2022/05/04 00:06:31;;;;;;;331.44;118.00;;;;;;;9.54;89.98;99752.94;334370;29;1321;-71
2022/05/04 00:06:41;;;;;;;333.20;117.97;;;;;;;9.54;90.32;99751.16;334450;29;894;-71
2022/05/04 00:06:51;;;;;;;332.97;118.47;;;;;;;9.53;90.24;99749.47;334494;29;1018;-71
2022/05/04 00:07:02;;;;;;;333.48;118.20;;;;;;;9.53;90.09;99749.47;333984;29;5155;-71
2022/05/04 00:07:12;;;;;;;333.77;119.70;;;;;;;9.54;90.12;99752.94;337408;29;5325;-71
2022/05/04 00:07:23;;;;;;;337.20;121.10;;;;;;;9.52;89.74;99750.41;338276;29;901;-71
2022/05/04 00:07:33;;;;;;;337.87;120.90;;;;;;;9.52;90.03;99755.63;336759;29;2214;-71
2022/05/04 00:07:44;;;;;;;336.42;119.97;;;;;;;9.50;89.89;99752.22;336907;29;3485;-71
2022/05/04 00:07:55;;;;;;;329.40;116.53;;;;;;;9.51;90.09;99755.69;338618;29;1864;-71
2022/05/04 00:08:05;;;;;;;326.67;114.35;;;;;;;9.49;89.99;99758.34;339566;29;1761;-71
2022/05/04 00:08:16;;;;;;;325.90;113.50;;;;;;;9.50;90.13;99754.81;339413;29;1860;-71
2022/05/04 00:08:27;;;;;;;328.98;114.30;;;;;;;9.50;89.73;99756.59;336783;29;2703;-71
2022/05/04 00:08:37;;;;;;;328.13;115.37;;;;;;;9.48;89.76;99761.84;337009;29;882;-71
2022/05/04 00:08:48;;;;;;;327.27;116.47;;;;;;;9.46;89.85;99757.59;337996;29;1994;-71
2022/05/04 00:08:58;;;;;;;326.08;116.90;;;;;;;9.45;89.76;99756.75;338140;29;1328;-71
2022/05/04 00:09:09;;;;;;;327.27;117.55;;;;;;;9.45;90.01;99751.50;338041;29;2293;-71
2022/05/04 00:09:19;;;;;;;326.80;115.40;;;;;;;9.42;90.28;99756.84;335775;29;877;-71
2022/05/04 00:09:30;;;;;;;327.33;114.87;;;;;;;9.43;90.02;99755.94;334624;29;1339;-71
2022/05/04 00:09:40;;;;;;;328.08;114.53;;;;;;;9.41;90.21;99759.50;334356;29;1135;-71
2022/05/04 00:09:50;;;;;;;331.60;116.93;;;;;;;9.39;90.26;99756.09;335049;29;2582;-71
2022/05/04 00:10:01;;;;;;;332.50;117.97;;;;;;;9.34;90.04;99759.72;335677;29;889;-71
2022/05/04 00:10:11;;;;;;;333.70;118.87;;;;;;;9.36;90.20;99759.66;337070;29;827;-71
2022/05/04 00:10:22;;;;;;;331.92;118.15;;;;;;;9.36;90.12;99759.66;336687;29;1877;-71
2022/05/04 00:10:34;;;;;;;330.52;117.63;;;;;;;9.37;90.56;99757.91;337931;29;1282;-71
2022/05/04 00:10:44;;;;;;;330.25;117.70;;;;;;;9.39;90.56;99756.94;335746;29;854;-71
2022/05/04 00:10:55;;;;;;;332.45;117.18;;;;;;;9.38;90.43;99754.38;338291;29;1232;-71
2022/05/04 00:11:05;;;;;;;332.80;116.53;;;;;;;9.39;90.63;99756.09;337103;29;928;-71
2022/05/04 00:11:16;;;;;;;332.47;117.27;;;;;;;9.38;90.19;99757.84;338308;29;857;-71
2022/05/04 00:11:26;;;;;;;331.77;117.27;;;;;;;9.36;90.55;99757.03;335615;29;1207;-71
2022/05/04 00:11:37;;;;;;;332.00;117.20;;;;;;;9.34;90.48;99757.09;334483;29;894;-71
2022/05/04 00:11:47;;;;;;;330.97;116.00;;;;;;;9.34;90.54;99758.84;334360;29;1053;-71
2022/05/04 00:11:57;;;;;;;332.13;116.70;;;;;;;9.33;90.92;99757.16;335568;29;1252;-71
2022/05/04 00:12:08;;;;;;;334.17;116.60;;;;;;;9.35;90.74;99760.56;338341;29;803;-71
2022/05/04 00:12:19;;;;;;;334.17;117.10;;;;;;;9.35;90.53;99757.94;340878;29;1387;-71
2022/05/04 00:12:29;;;;;;;331.13;115.97;;;;;;;9.37;90.54;99761.38;339670;29;917;-71
2022/05/04 00:12:39;;;;;;;329.90;117.50;;;;;;;9.35;90.59;99757.94;336930;29;1325;-73
2022/05/04 00:12:50;;;;;;;332.65;117.35;;;;;;;9.38;90.21;99757.00;337020;29;833;-72
2022/05/04 00:13:01;;;;;;;334.43;118.40;;;;;;;9.34;90.29;99753.63;335544;29;1240;-73
2022/05/04 00:13:12;;;;;;;332.35;117.75;;;;;;;9.34;90.18;99753.63;340926;29;1434;-72
2022/05/04 00:13:22;;;;;;;329.23;116.53;;;;;;;9.33;90.51;99757.16;339497;29;2434;-72
2022/05/04 00:13:33;;;;;;;330.47;116.67;;;;;;;9.33;90.41;99757.16;336409;29;910;-72
2022/05/04 00:13:43;;;;;;;328.95;114.70;;;;;;;9.32;89.98;99755.44;335794;29;867;-72
2022/05/04 00:13:53;;;;;;;328.40;114.17;;;;;;;9.32;90.09;99751.06;339493;29;1244;-72
2022/05/04 00:14:04;;;;;;;326.05;112.35;;;;;;;9.29;89.71;99751.16;339684;29;977;-72
2022/05/04 00:14:14;;;;;;;327.60;113.33;;;;;;;9.30;89.57;99757.25;338310;29;909;-72
2022/05/04 00:14:25;;;;;;;327.48;113.18;;;;;;;9.29;89.90;99750.31;335954;29;885;-72
2022/05/04 00:14:35;;;;;;;330.13;114.20;;;;;;;9.28;89.75;99753.81;337848;29;2466;-72
2022/05/04 00:14:46;;;;;;;331.03;115.03;;;;;;;9.29;89.88;99745.94;336929;29;1225;-72
2022/05/04 00:14:56;;;;;;;332.00;116.32;;;;;;;9.30;89.80;99746.78;336992;29;1911;-72
2022/05/04 00:15:07;;;;;;;330.43;116.83;;;;;;;9.29;89.60;99752.94;337632;29;936;-72
2022/05/04 00:15:18;;;;;;;328.52;115.60;;;;;;;9.30;89.42;99752.03;336993;29;1021;-72
2022/05/04 00:15:29;;;;;;;328.80;115.15;;;;;;;9.29;89.76;99750.31;334395;29;906;-72
2022/05/04 00:15:39;;;;;;;333.42;115.32;;;;;;;9.29;89.54;99745.94;338458;29;1347;-72
2022/05/04 00:15:50;;;;;;;334.97;115.43;;;;;;;9.28;89.18;99743.38;339739;29;831;-72
2022/05/04 00:16:01;;;;;;;331.92;114.32;;;;;;;9.29;89.84;99747.69;339686;29;823;-72
2022/05/04 00:16:11;;;;;;;328.77;114.95;;;;;;;9.26;89.77;99746.03;336330;29;3864;-72
2022/05/04 00:16:22;;;;;;;329.53;116.77;;;;;;;9.24;89.64;99741.78;332545;29;5451;-72
2022/05/04 00:16:32;;;;;;;330.77;117.53;;;;;;;9.23;89.48;99738.31;336735;29;2153;-72
2022/05/04 00:16:42;;;;;;;332.50;117.67;;;;;;;9.26;89.44;99745.19;337972;29;1855;-72
2022/05/04 00:16:53;;;;;;;331.38;115.28;;;;;;;9.23;89.35;99745.28;337900;29;5636;-72
2022/05/04 00:17:03;;;;;;;332.30;114.47;;;;;;;9.23;89.51;99745.28;336425;29;1571;-72
2022/05/04 00:17:14;;;;;;;329.25;112.93;;;;;;;9.25;89.72;99743.47;336845;29;3914;-72
2022/05/04 00:17:24;;;;;;;326.93;114.03;;;;;;;9.25;89.42;99748.72;338833;29;5957;-72
2022/05/04 00:17:34;;;;;;;327.42;114.57;;;;;;;9.25;89.57;99743.47;337710;29;1998;-72
2022/05/04 00:17:45;;;;;;;328.53;115.03;;;;;;;9.25;89.58;99743.47;337806;29;2104;-72
2022/05/04 00:17:56;;;;;;;329.88;114.28;;;;;;;9.25;89.30;99743.47;338069;29;5426;-72
2022/05/04 00:18:06;;;;;;;326.05;111.70;;;;;;;9.26;89.21;99739.97;338225;29;1217;-72
2022/05/04 00:18:17;;;;;;;328.30;112.57;;;;;;;9.26;89.06;99742.59;336744;29;4706;-72
2022/05/04 00:18:30;;;;;;;329.60;113.93;;;;;;;9.25;89.30;99743.47;334794;29;2704;-72
2022/05/04 00:18:40;;;;;;;331.65;115.95;;;;;;;9.26;88.77;99742.59;339221;29;1798;-72
2022/05/04 00:18:51;;;;;;;328.40;114.43;;;;;;;9.24;89.04;99739.16;339480;29;961;-72
2022/05/04 00:19:01;;;;;;;327.60;114.75;;;;;;;9.25;88.64;99744.34;334352;29;1422;-72
2022/05/04 00:19:11;;;;;;;323.40;112.73;;;;;;;9.24;88.88;99741.78;333217;29;1275;-72
2022/05/04 00:19:22;;;;;;;325.27;113.27;;;;;;;9.21;89.28;99744.50;335604;29;2142;-72
2022/05/04 00:19:32;;;;;;;323.80;111.90;;;;;;;9.23;88.73;99745.28;336831;29;973;-72
2022/05/04 00:19:42;;;;;;;328.03;113.90;;;;;;;9.24;89.71;99742.63;337103;29;1002;-72
2022/05/04 00:19:53;;;;;;;327.23;112.25;;;;;;;9.25;89.67;99743.47;339459;29;1197;-72
2022/05/04 00:20:04;;;;;;;328.03;112.53;;;;;;;9.26;89.51;99746.03;336737;29;1644;-72
2022/05/04 00:20:14;;;;;;;326.25;111.82;;;;;;;9.28;88.65;99749.47;337966;29;1495;-72
2022/05/04 00:20:25;;;;;;;327.80;114.20;;;;;;;9.27;89.06;99747.75;335663;29;1002;-72
2022/05/04 00:20:35;;;;;;;329.07;115.73;;;;;;;9.27;89.15;99746.91;338028;29;1241;-72
2022/05/04 00:20:45;;;;;;;327.27;113.55;;;;;;;9.29;88.99;99745.09;336807;29;1409;-72
2022/05/04 00:20:56;;;;;;;325.63;112.63;;;;;;;9.28;89.00;99739.00;336843;29;1516;-72
2022/05/04 00:21:09;;;;;;;322.15;110.22;;;;;;;9.29;88.53;99745.09;337027;29;859;-72
2022/05/04 00:21:20;;;;;;;322.83;111.72;;;;;;;9.28;89.01;99746.00;334544;29;924;-72
2022/05/04 00:21:30;;;;;;;322.67;110.70;;;;;;;9.27;88.93;99747.75;336831;29;1213;-72
2022/05/04 00:21:40;;;;;;;322.70;110.13;;;;;;;9.26;88.72;99739.97;336883;29;1225;-72
2022/05/04 00:21:51;;;;;;;322.03;110.33;;;;;;;9.25;88.78;99743.47;336860;29;1309;-72
2022/05/04 00:22:01;;;;;;;323.95;111.63;;;;;;;9.24;89.07;99744.38;336877;29;1233;-72
2022/05/04 00:22:16;;;;;;;323.23;111.87;;;;;;;9.21;88.98;99741.88;337047;29;942;-72
2022/05/04 00:22:27;;;;;;;324.65;111.80;;;;;;;9.19;89.25;99733.25;337012;29;849;-72
2022/05/04 00:22:37;;;;;;;327.93;111.73;;;;;;;9.21;89.29;99744.50;336910;29;932;-72
2022/05/04 00:22:48;;;;;;;329.00;112.82;;;;;;;9.22;89.05;99743.59;337051;29;1239;-72
2022/05/04 00:22:58;;;;;;;329.53;113.87;;;;;;;9.21;89.33;99745.34;337007;29;958;-72
2022/05/04 00:23:09;;;;;;;330.23;115.53;;;;;;;9.22;89.48;99748.81;336859;29;1573;-72
2022/05/04 00:23:19;;;;;;;329.25;114.57;;;;;;;9.20;89.44;99748.00;338119;29;1628;-72
2022/05/04 00:23:29;;;;;;;329.73;113.47;;;;;;;9.21;88.95;99741.88;338078;29;2043;-72
2022/05/04 00:23:40;;;;;;;327.45;112.13;;;;;;;9.23;89.13;99745.28;338362;29;881;-72
2022/05/04 00:23:50;;;;;;;327.60;112.60;;;;;;;9.23;88.90;99746.16;335733;29;980;-72
2022/05/04 00:24:01;;;;;;;326.58;112.85;;;;;;;9.23;88.99;99743.53;338270;29;892;-72
2022/05/04 00:24:11;;;;;;;326.57;114.13;;;;;;;9.25;89.37;99743.47;338798;29;2193;-72
2022/05/04 00:24:21;;;;;;;325.58;113.18;;;;;;;9.23;89.20;99740.06;339393;29;1589;-72
2022/05/04 00:24:32;;;;;;;325.17;112.43;;;;;;;9.23;89.27;99738.31;339455;29;1792;-72
2022/05/04 00:24:42;;;;;;;323.50;110.15;;;;;;;9.21;89.07;99742.72;334343;29;1154;-72
2022/05/04 00:24:52;;;;;;;322.93;111.23;;;;;;;9.22;88.95;99746.19;334451;29;1256;-72
2022/05/04 00:25:03;;;;;;;321.80;111.23;;;;;;;9.21;89.00;99741.88;338267;29;1102;-72
2022/05/04 00:25:14;;;;;;;322.17;111.63;;;;;;;9.22;89.28;99740.97;338182;29;1257;-72
2022/05/04 00:25:24;;;;;;;321.98;111.75;;;;;;;9.23;88.93;99745.28;338372;29;817;-72
2022/05/04 00:25:34;;;;;;;322.30;111.47;;;;;;;9.22;89.29;99744.44;334822;29;3791;-72
2022/05/04 00:25:45;;;;;;;324.05;112.63;;;;;;;9.24;89.07;99742.63;333457;29;5573;-72
2022/05/04 00:25:55;;;;;;;325.67;112.43;;;;;;;9.22;89.29;99744.44;338161;29;2094;-72
2022/05/04 00:26:05;;;;;;;327.17;113.50;;;;;;;9.24;89.12;99744.38;340402;29;1976;-72
2022/05/04 00:26:16;;;;;;;326.05;112.35;;;;;;;9.24;88.74;99747.84;338950;29;3483;-72
2022/05/04 00:26:26;;;;;;;325.20;111.13;;;;;;;9.24;88.77;99744.38;336911;29;1201;-72
2022/05/04 00:26:37;;;;;;;325.30;110.50;;;;;;;9.22;88.73;99743.59;338165;29;1643;-72
2022/05/04 00:26:47;;;;;;;324.48;109.28;;;;;;;9.23;89.14;99737.47;338191;29;1342;-72
2022/05/04 00:26:58;;;;;;;324.17;109.73;;;;;;;9.21;88.96;99734.91;337066;29;811;-72
2022/05/04 00:27:08;;;;;;;325.53;112.27;;;;;;;9.22;89.45;99736.59;339530;29;1189;-72
2022/05/04 00:27:19;;;;;;;327.92;114.45;;;;;;;9.21;89.23;99742.72;337108;29;914;-72
2022/05/04 00:27:29;;;;;;;327.10;113.40;;;;;;;9.21;89.35;99742.72;336893;29;1528;-72
2022/05/04 00:27:40;;;;;;;323.17;110.20;;;;;;;9.23;88.86;99745.28;339442;29;1303;-72
2022/05/04 00:27:50;;;;;;;321.40;108.28;;;;;;;9.20;88.97;99742.78;339443;29;1363;-72
2022/05/04 00:28:02;;;;;;;322.33;108.73;;;;;;;9.19;89.05;99741.06;339466;29;849;-72
2022/05/04 00:28:12;;;;;;;323.70;110.25;;;;;;;9.19;89.08;99744.53;338267;29;882;-72
2022/05/04 00:28:23;;;;;;;325.53;111.00;;;;;;;9.20;88.89;99750.63;338065;29;1860;-72
2022/05/04 00:28:33;;;;;;;325.88;111.13;;;;;;;9.17;89.17;99745.50;335129;29;1229;-72
2022/05/04 00:28:43;;;;;;;326.23;110.77;;;;;;;9.16;88.80;99743.78;337158;29;910;-72
2022/05/04 00:28:54;;;;;;;323.55;110.38;;;;;;;9.16;89.18;99738.56;337318;29;807;-72
2022/05/04 00:29:04;;;;;;;323.57;109.43;;;;;;;9.16;89.35;99738.56;336714;29;1876;-72
2022/05/04 00:29:14;;;;;;;323.50;110.17;;;;;;;9.19;88.93;99743.69;338204;29;1105;-72
2022/05/04 00:29:25;;;;;;;322.83;109.38;;;;;;;9.16;88.89;99742.03;338033;29;1851;-72
2022/05/04 00:29:35;;;;;;;320.83;110.10;;;;;;;9.16;89.16;99735.94;338243;29;1096;-72
2022/05/04 00:29:46;;;;;;;321.77;110.32;;;;;;;9.16;89.17;99735.94;336987;29;946;-72
2022/05/04 00:29:56;;;;;;;321.73;110.87;;;;;;;9.15;89.12;99742.94;335743;29;922;-72
2022/05/04 00:30:07;;;;;;;320.50;109.28;;;;;;;9.16;88.59;99743.78;336863;29;1335;-72
2022/05/04 00:30:17;;;;;;;319.67;109.20;;;;;;;9.17;88.64;99738.50;338304;29;1309;-72
2022/05/04 00:30:28;;;;;;;322.13;110.10;;;;;;;9.18;88.23;99745.44;338264;29;1010;-72
2022/05/04 00:30:39;;;;;;;323.90;111.07;;;;;;;9.19;88.54;99744.53;339606;29;806;-72
2022/05/04 00:30:49;;;;;;;322.63;110.57;;;;;;;9.18;88.43;99742.84;340826;28;1288;-72
2022/05/04 00:31:00;;;;;;;321.17;109.47;;;;;;;9.16;88.58;99743.78;335555;29;1601;-72
2022/05/04 00:31:10;;;;;;;322.17;108.82;;;;;;;9.17;89.01;99745.50;339045;29;2156;-72
2022/05/04 00:31:21;;;;;;;322.23;108.50;;;;;;;9.16;88.72;99743.78;339447;29;1527;-72
2022/05/04 00:31:31;;;;;;;324.13;109.50;;;;;;;9.14;88.71;99737.75;339510;29;1208;-72
2022/05/04 00:31:41;;;;;;;324.90;111.60;;;;;;;9.17;89.07;99740.28;338232;29;1347;-72
2022/05/04 00:31:52;;;;;;;327.03;112.87;;;;;;;9.17;88.78;99735.91;336874;29;1025;-72
2022/05/04 00:32:02;;;;;;;323.90;111.15;;;;;;;9.18;88.89;99747.19;336887;29;1293;-72
2022/05/04 00:32:14;;;;;;;323.90;110.77;;;;;;;9.19;88.60;99744.53;336973;29;956;-72
2022/05/04 00:32:24;;;;;;;323.23;110.32;;;;;;;9.18;88.44;99740.22;339659;29;927;-72
2022/05/04 00:32:34;;;;;;;324.10;111.50;;;;;;;9.20;88.92;99737.56;338223;29;930;-72
2022/05/04 00:32:46;;;;;;;322.33;110.97;;;;;;;9.18;88.67;99737.59;337122;29;972;-72
2022/05/04 00:32:56;;;;;;;320.33;109.22;;;;;;;9.21;88.83;99736.66;338318;29;785;-72
2022/05/04 00:33:06;;;;;;;320.48;107.93;;;;;;;9.22;88.62;99738.38;336924;29;1470;-72
2022/05/04 00:33:17;;;;;;;323.67;108.80;;;;;;;9.21;88.95;99737.50;336540;29;2192;-72
2022/05/04 00:33:27;;;;;;;323.87;109.77;;;;;;;9.22;88.90;99739.22;336899;29;1743;-72
2022/05/04 00:33:38;;;;;;;323.40;110.10;;;;;;;9.21;88.91;99742.72;337938;29;2212;-72
2022/05/04 00:33:48;;;;;;;321.33;110.00;;;;;;;9.21;88.47;99742.72;338320;29;1764;-72
2022/05/04 00:33:58;;;;;;;322.00;109.38;;;;;;;9.20;88.44;99737.56;338053;29;1376;-72
2022/05/04 00:34:09;;;;;;;322.83;109.10;;;;;;;9.20;88.89;99740.16;338218;29;1847;-72
2022/05/04 00:34:19;;;;;;;322.92;108.72;;;;;;;9.19;88.83;99741.06;336801;29;1905;-72
2022/05/04 00:34:30;;;;;;;323.80;109.03;;;;;;;9.20;89.09;99742.78;335715;29;812;-72
2022/05/04 00:34:41;;;;;;;323.55;109.57;;;;;;;9.19;88.64;99736.72;336756;29;1557;-72
2022/05/04 00:34:51;;;;;;;323.42;111.18;;;;;;;9.20;88.82;99740.16;335864;29;5354;-72
2022/05/04 00:35:02;;;;;;;323.67;111.97;;;;;;;9.18;88.40;99741.97;338556;29;5483;-72
2022/05/04 00:35:12;;;;;;;326.60;113.32;;;;;;;9.19;88.81;99738.47;335655;29;839;-72
2022/05/04 00:35:22;;;;;;;326.67;111.43;;;;;;;9.18;88.69;99739.38;337658;29;2841;-72
2022/05/04 00:35:33;;;;;;;325.33;111.05;;;;;;;9.19;88.73;99738.47;337861;29;1421;-72
2022/05/04 00:35:44;;;;;;;323.65;110.13;;;;;;;9.17;88.99;99737.66;336877;29;1398;-72
2022/05/04 00:35:54;;;;;;;325.27;111.47;;;;;;;9.20;88.63;99742.78;335627;29;1904;-72
2022/05/04 00:36:05;;;;;;;327.83;112.47;;;;;;;9.19;88.52;99743.69;335645;29;1212;-72
2022/05/04 00:36:15;;;;;;;329.47;112.97;;;;;;;9.18;88.63;99736.75;335712;29;904;-72
2022/05/04 00:36:25;;;;;;;328.67;112.20;;;;;;;9.14;88.38;99733.38;339512;29;1273;-73
2022/05/04 00:36:36;;;;;;;326.85;112.07;;;;;;;9.18;88.68;99739.38;335557;29;2237;-73
2022/05/04 00:36:46;;;;;;;324.90;110.10;;;;;;;9.14;88.39;99736.00;338181;29;1506;-72
2022/05/04 00:37:01;;;;;;;323.45;108.55;;;;;;;9.14;88.69;99737.75;336929;29;1533;-72
2022/05/04 00:37:11;;;;;;;322.25;108.88;;;;;;;9.12;88.79;99731.72;339618;29;1333;-72
2022/05/04 00:37:22;;;;;;;323.40;109.77;;;;;;;9.14;88.55;99735.16;338313;29;1345;-72
2022/05/04 00:37:33;;;;;;;323.65;108.75;;;;;;;9.14;88.78;99736.00;338209;29;1330;-72
2022/05/04 00:37:43;;;;;;;323.38;108.45;;;;;;;9.16;88.55;99739.41;335740;29;882;-72
2022/05/04 00:37:54;;;;;;;322.47;108.00;;;;;;;9.17;88.46;99735.06;335776;29;903;-72
2022/05/04 00:38:04;;;;;;;320.88;108.28;;;;;;;9.16;88.31;99734.19;336837;29;1273;-72
2022/05/04 00:38:14;;;;;;;322.00;109.07;;;;;;;9.16;88.39;99741.16;335738;29;892;-72
2022/05/04 00:38:25;;;;;;;320.20;108.15;;;;;;;9.14;88.83;99737.75;341296;28;2551;-72
2022/05/04 00:38:35;;;;;;;321.70;108.47;;;;;;;9.13;88.73;99738.66;340341;29;2568;-72
2022/05/04 00:38:45;;;;;;;321.27;108.33;;;;;;;9.14;88.57;99737.75;339955;29;1147;-72
2022/05/04 00:38:56;;;;;;;322.35;108.22;;;;;;;9.15;88.46;99739.47;339214;29;1316;-72
2022/05/04 00:39:06;;;;;;;320.37;107.60;;;;;;;9.12;88.52;99736.97;339481;29;1313;-72
2022/05/04 00:39:17;;;;;;;320.80;107.72;;;;;;;9.12;88.59;99732.59;339656;29;937;-72
2022/05/04 00:39:28;;;;;;;321.30;109.33;;;;;;;9.11;89.06;99732.63;338107;29;1914;-72
2022/05/04 00:39:38;;;;;;;322.33;110.47;;;;;;;9.14;88.92;99736.00;336793;29;2182;-72
2022/05/04 00:39:48;;;;;;;322.63;110.32;;;;;;;9.15;89.10;99736.84;339532;29;1440;-72
2022/05/04 00:39:59;;;;;;;324.67;109.70;;;;;;;9.14;88.47;99730.78;338330;29;806;-72
2022/05/04 00:40:09;;;;;;;326.30;109.18;;;;;;;9.16;88.54;99728.97;336809;29;1365;-72
2022/05/04 00:40:20;;;;;;;326.63;110.67;;;;;;;9.18;88.43;99744.59;334289;29;1465;-72
2022/05/04 00:40:30;;;;;;;325.88;110.88;;;;;;;9.18;88.63;99741.97;334361;29;1177;-72
2022/05/04 00:40:41;;;;;;;324.60;110.33;;;;;;;9.17;88.44;99730.69;336812;29;1375;-72
2022/05/04 00:40:51;;;;;;;323.83;110.07;;;;;;;9.16;88.11;99728.97;338184;29;1233;-72
2022/05/04 00:41:02;;;;;;;322.30;109.97;;;;;;;9.14;88.23;99735.16;337997;29;2111;-72
2022/05/04 00:41:12;;;;;;;320.45;109.88;;;;;;;9.15;88.53;99744.69;339457;29;923;-72
2022/05/04 00:41:22;;;;;;;319.90;109.47;;;;;;;9.15;89.23;99736.84;338003;29;1364;-72
2022/05/04 00:41:33;;;;;;;322.93;110.80;;;;;;;9.15;88.77;99736.84;336555;29;1700;-72
2022/05/04 00:41:43;;;;;;;322.05;109.72;;;;;;;9.14;88.93;99736.00;339514;29;1158;-72
2022/05/04 00:41:53;;;;;;;321.80;109.67;;;;;;;9.13;88.40;99738.66;339618;29;963;-72
2022/05/04 00:42:07;;;;;;;319.67;108.90;;;;;;;9.12;88.79;99731.72;339613;29;965;-72
2022/05/04 00:42:20;;;;;;;322.25;109.18;;;;;;;9.11;88.80;99732.63;339578;29;925;-72
2022/05/04 00:42:30;;;;;;;321.10;108.05;;;;;;;9.12;88.87;99729.13;338323;29;928;-72
2022/05/04 00:42:41;;;;;;;318.58;108.28;;;;;;;9.07;88.88;99724.09;338315;29;905;-72
2022/05/04 00:42:51;;;;;;;319.07;109.00;;;;;;;9.12;88.67;99732.59;339563;29;929;-72
2022/05/04 00:43:02;;;;;;;320.60;108.82;;;;;;;9.13;88.31;99741.28;340694;29;1333;-72
2022/05/04 00:43:23;;;;;;;321.67;110.23;;;;;;;9.11;88.65;99735.25;336930;29;1345;-72
2022/05/04 00:43:33;;;;;;;322.00;109.78;;;;;;;9.11;88.52;99735.25;338040;29;1200;-72
2022/05/04 00:43:50;;;;;;;321.70;109.20;;;;;;;9.11;88.48;99740.47;336883;29;1335;-72
2022/05/04 00:44:01;;;;;;;323.92;110.88;;;;;;;9.12;88.42;99731.72;337117;29;6139;-72
2022/05/04 00:44:11;;;;;;;323.40;111.27;;;;;;;9.13;88.57;99738.66;336226;29;5346;-72
2022/05/04 00:44:21;;;;;;;328.50;112.95;;;;;;;9.09;88.23;99737.94;336717;29;6147;-72
2022/05/04 00:44:32;;;;;;;327.03;112.70;;;;;;;9.11;88.54;99740.47;336636;29;2071;-72
2022/05/04 00:44:44;;;;;;;328.15;112.18;;;;;;;9.11;88.65;99738.72;336856;29;3585;-72
2022/05/04 00:44:55;;;;;;;326.60;112.22;;;;;;;9.11;88.68;99735.25;338172;29;1250;-72
2022/05/04 00:45:05;;;;;;;328.63;112.32;;;;;;;9.11;88.49;99740.47;338249;29;1750;-72
2022/05/04 00:45:16;;;;;;;326.30;111.70;;;;;;;9.12;88.41;99735.19;339554;29;873;-72
2022/05/04 00:45:26;;;;;;;325.27;111.03;;;;;;;9.12;88.28;99731.72;339645;29;933;-72
2022/05/04 00:45:37;;;;;;;324.08;112.05;;;;;;;9.12;88.90;99731.72;335480;29;1438;-72
2022/05/04 00:45:47;;;;;;;325.67;112.93;;;;;;;9.14;88.43;99732.53;338046;29;1178;-72
2022/05/04 00:45:58;;;;;;;326.88;112.25;;;;;;;9.11;88.79;99740.47;338172;29;1699;-72
2022/05/04 00:46:08;;;;;;;331.90;111.17;;;;;;;9.12;88.74;99736.97;336878;29;1558;-72
2022/05/04 00:46:19;;;;;;;330.35;110.22;;;;;;;9.12;88.45;99731.72;336943;29;1333;-72
2022/05/04 00:46:29;;;;;;;325.83;110.37;;;;;;;9.11;88.37;99740.47;336897;29;1185;-72
2022/05/04 00:46:40;;;;;;;323.27;110.10;;;;;;;9.10;88.39;99729.16;336982;29;850;-72
2022/05/04 00:46:50;;;;;;;322.23;109.83;;;;;;;9.10;88.49;99733.56;339384;29;1296;-72
2022/05/04 00:47:00;;;;;;;323.05;110.03;;;;;;;9.11;88.31;99730.03;339701;29;1067;-72
2022/05/04 00:47:11;;;;;;;322.53;110.47;;;;;;;9.10;88.12;99730.97;339649;29;846;-72
2022/05/04 00:47:22;;;;;;;323.90;110.03;;;;;;;9.10;88.72;99734.41;336957;29;946;-72
2022/05/04 00:47:32;;;;;;;325.52;110.57;;;;;;;9.08;88.60;99730.16;336999;29;913;-72
2022/05/04 00:47:43;;;;;;;325.13;109.53;;;;;;;9.07;88.83;99738.91;338311;29;978;-72
2022/05/04 00:47:53;;;;;;;324.13;108.05;;;;;;;9.06;88.74;99726.75;338302;29;956;-72
2022/05/04 00:48:04;;;;;;;323.37;106.93;;;;;;;9.04;88.86;99729.41;338241;29;959;-72
2022/05/04 00:48:15;;;;;;;322.90;107.82;;;;;;;9.03;88.49;99739.91;337070;29;2159;-72
2022/05/04 00:48:25;;;;;;;324.48;108.88;;;;;;;9.04;88.66;99744.22;336062;29;1819;-72
2022/05/04 00:48:35;;;;;;;325.17;109.87;;;;;;;9.04;88.97;99729.41;336910;29;973;-72
2022/05/04 00:48:46;;;;;;;326.35;110.28;;;;;;;9.05;89.12;99740.69;339489;29;1196;-72
2022/05/04 00:48:56;;;;;;;325.00;109.77;;;;;;;9.06;89.02;99726.75;336937;29;835;-72
2022/05/04 00:49:07;;;;;;;324.10;109.05;;;;;;;9.04;88.69;99728.56;335653;29;1211;-72
2022/05/04 00:49:17;;;;;;;322.57;108.43;;;;;;;9.07;88.70;99733.66;336343;29;1102;-72
2022/05/04 00:49:27;;;;;;;325.48;109.05;;;;;;;9.07;88.73;99731.06;336922;29;1182;-72